sensor_id;sensor_type;location;lat;lon;timestamp;P1;durP1;ratioP1;P2;durP2;ratioP2
15629;SDS011;7914;50.842;0.166;2022-09-09T00:04:16;19.63;;;10.30;;
15629;SDS011;7914;50.842;0.166;2022-09-09T00:06:59;24.60;;;9.50;;
15629;SDS011;7914;50.842;0.166;2022-09-09T00:12:36;19.90;;;9.40;;
15629;SDS011;7914;50.842;0.166;2022-09-09T00:15:26;22.30;;;8.90;;
15629;SDS011;7914;50.842;0.166;2022-09-09T00:26:29;19.67;;;7.40;;
15629;SDS011;7914;50.842;0.166;2022-09-09T00:31:33;16.80;;;6.90;;
15629;SDS011;7914;50.842;0.166;2022-09-09T00:34:03;20.33;;;7.03;;
15629;SDS011;7914;50.842;0.166;2022-09-09T00:36:38;12.23;;;6.27;;
15629;SDS011;7914;50.842;0.166;2022-09-09T00:39:04;13.23;;;6.30;;
15629;SDS011;7914;50.842;0.166;2022-09-09T00:44:01;16.00;;;9.90;;
15629;SDS011;7914;50.842;0.166;2022-09-09T00:55:14;19.97;;;9.67;;
15629;SDS011;7914;50.842;0.166;2022-09-09T00:57:51;19.57;;;10.27;;
15629;SDS011;7914;50.842;0.166;2022-09-09T01:07:53;24.63;;;9.60;;
15629;SDS011;7914;50.842;0.166;2022-09-09T01:13:01;30.97;;;9.50;;
15629;SDS011;7914;50.842;0.166;2022-09-09T01:15:30;16.47;;;8.40;;
15629;SDS011;7914;50.842;0.166;2022-09-09T01:17:59;19.20;;;8.63;;
15629;SDS011;7914;50.842;0.166;2022-09-09T01:20:30;28.90;;;10.20;;
15629;SDS011;7914;50.842;0.166;2022-09-09T01:28:44;19.17;;;9.30;;
15629;SDS011;7914;50.842;0.166;2022-09-09T01:31:14;23.17;;;10.87;;
15629;SDS011;7914;50.842;0.166;2022-09-09T01:33:43;19.30;;;10.03;;
15629;SDS011;7914;50.842;0.166;2022-09-09T01:38:43;13.03;;;8.33;;
15629;SDS011;7914;50.842;0.166;2022-09-09T01:41:08;13.90;;;8.30;;
15629;SDS011;7914;50.842;0.166;2022-09-09T01:43:34;14.20;;;7.70;;
15629;SDS011;7914;50.842;0.166;2022-09-09T01:46:00;12.33;;;7.20;;
15629;SDS011;7914;50.842;0.166;2022-09-09T01:48:27;10.70;;;7.60;;
15629;SDS011;7914;50.842;0.166;2022-09-09T01:50:54;11.20;;;7.00;;
15629;SDS011;7914;50.842;0.166;2022-09-09T01:53:20;10.47;;;6.90;;
15629;SDS011;7914;50.842;0.166;2022-09-09T01:58:47;11.23;;;6.90;;
15629;SDS011;7914;50.842;0.166;2022-09-09T02:01:18;10.17;;;6.80;;
15629;SDS011;7914;50.842;0.166;2022-09-09T02:04:27;8.33;;;6.20;;
15629;SDS011;7914;50.842;0.166;2022-09-09T02:06:56;8.50;;;5.77;;
15629;SDS011;7914;50.842;0.166;2022-09-09T02:09:23;7.10;;;5.80;;
15629;SDS011;7914;50.842;0.166;2022-09-09T02:11:53;6.33;;;5.73;;
15629;SDS011;7914;50.842;0.166;2022-09-09T02:14:34;6.97;;;6.27;;
15629;SDS011;7914;50.842;0.166;2022-09-09T02:17:09;9.63;;;6.03;;
15629;SDS011;7914;50.842;0.166;2022-09-09T02:19:37;8.63;;;5.63;;
15629;SDS011;7914;50.842;0.166;2022-09-09T02:22:07;8.03;;;5.73;;
15629;SDS011;7914;50.842;0.166;2022-09-09T02:24:34;9.53;;;5.53;;
15629;SDS011;7914;50.842;0.166;2022-09-09T02:27:03;6.43;;;5.70;;
15629;SDS011;7914;50.842;0.166;2022-09-09T02:29:39;9.00;;;5.53;;
15629;SDS011;7914;50.842;0.166;2022-09-09T02:32:17;7.13;;;5.47;;
15629;SDS011;7914;50.842;0.166;2022-09-09T02:34:47;10.93;;;5.73;;
15629;SDS011;7914;50.842;0.166;2022-09-09T02:37:17;9.87;;;5.77;;
15629;SDS011;7914;50.842;0.166;2022-09-09T02:39:45;6.77;;;5.60;;
15629;SDS011;7914;50.842;0.166;2022-09-09T02:42:12;7.63;;;5.67;;
15629;SDS011;7914;50.842;0.166;2022-09-09T02:44:40;7.70;;;5.83;;
15629;SDS011;7914;50.842;0.166;2022-09-09T02:52:16;11.63;;;6.13;;
15629;SDS011;7914;50.842;0.166;2022-09-09T02:54:47;13.90;;;6.60;;
15629;SDS011;7914;50.842;0.166;2022-09-09T02:57:23;7.17;;;6.17;;
15629;SDS011;7914;50.842;0.166;2022-09-09T02:59:56;7.80;;;6.00;;
15629;SDS011;7914;50.842;0.166;2022-09-09T03:02:23;8.93;;;6.47;;
15629;SDS011;7914;50.842;0.166;2022-09-09T03:04:50;6.80;;;6.10;;
15629;SDS011;7914;50.842;0.166;2022-09-09T03:07:20;6.93;;;6.33;;
15629;SDS011;7914;50.842;0.166;2022-09-09T03:09:46;8.90;;;6.63;;
15629;SDS011;7914;50.842;0.166;2022-09-09T03:12:12;10.40;;;6.23;;
15629;SDS011;7914;50.842;0.166;2022-09-09T03:14:38;8.13;;;5.90;;
15629;SDS011;7914;50.842;0.166;2022-09-09T03:17:04;9.50;;;5.93;;
15629;SDS011;7914;50.842;0.166;2022-09-09T03:19:30;8.87;;;5.90;;
15629;SDS011;7914;50.842;0.166;2022-09-09T03:21:57;11.87;;;6.47;;
15629;SDS011;7914;50.842;0.166;2022-09-09T03:24:23;9.37;;;6.30;;
15629;SDS011;7914;50.842;0.166;2022-09-09T03:26:49;7.80;;;6.03;;
15629;SDS011;7914;50.842;0.166;2022-09-09T03:29:15;10.63;;;6.43;;
15629;SDS011;7914;50.842;0.166;2022-09-09T03:31:42;6.63;;;6.00;;
15629;SDS011;7914;50.842;0.166;2022-09-09T03:34:08;7.23;;;5.60;;
15629;SDS011;7914;50.842;0.166;2022-09-09T03:36:34;10.17;;;5.73;;
15629;SDS011;7914;50.842;0.166;2022-09-09T03:39:00;9.03;;;5.40;;
15629;SDS011;7914;50.842;0.166;2022-09-09T03:41:28;8.77;;;5.20;;
15629;SDS011;7914;50.842;0.166;2022-09-09T03:43:54;8.67;;;5.27;;
15629;SDS011;7914;50.842;0.166;2022-09-09T03:46:20;6.33;;;4.80;;
15629;SDS011;7914;50.842;0.166;2022-09-09T03:48:47;8.77;;;4.80;;
15629;SDS011;7914;50.842;0.166;2022-09-09T03:51:13;6.47;;;4.80;;
15629;SDS011;7914;50.842;0.166;2022-09-09T03:53:40;10.87;;;5.13;;
15629;SDS011;7914;50.842;0.166;2022-09-09T03:56:06;9.63;;;5.37;;
15629;SDS011;7914;50.842;0.166;2022-09-09T03:58:32;7.53;;;4.90;;
15629;SDS011;7914;50.842;0.166;2022-09-09T04:01:03;9.37;;;5.10;;
15629;SDS011;7914;50.842;0.166;2022-09-09T04:03:39;6.03;;;5.10;;
15629;SDS011;7914;50.842;0.166;2022-09-09T04:06:06;7.87;;;4.87;;
15629;SDS011;7914;50.842;0.166;2022-09-09T04:08:34;7.40;;;4.90;;
15629;SDS011;7914;50.842;0.166;2022-09-09T04:11:01;9.90;;;4.97;;
15629;SDS011;7914;50.842;0.166;2022-09-09T04:13:31;5.20;;;4.70;;
15629;SDS011;7914;50.842;0.166;2022-09-09T04:15:59;7.50;;;4.60;;
15629;SDS011;7914;50.842;0.166;2022-09-09T04:18:27;9.17;;;4.47;;
15629;SDS011;7914;50.842;0.166;2022-09-09T04:20:53;6.10;;;4.33;;
15629;SDS011;7914;50.842;0.166;2022-09-09T04:23:22;8.33;;;4.80;;
15629;SDS011;7914;50.842;0.166;2022-09-09T04:25:50;6.03;;;4.47;;
15629;SDS011;7914;50.842;0.166;2022-09-09T04:28:18;5.57;;;4.30;;
15629;SDS011;7914;50.842;0.166;2022-09-09T04:30:45;6.00;;;4.13;;
15629;SDS011;7914;50.842;0.166;2022-09-09T04:33:11;7.00;;;4.27;;
15629;SDS011;7914;50.842;0.166;2022-09-09T04:35:38;5.40;;;3.97;;
15629;SDS011;7914;50.842;0.166;2022-09-09T04:38:05;5.80;;;4.30;;
15629;SDS011;7914;50.842;0.166;2022-09-09T04:40:34;5.83;;;4.03;;
15629;SDS011;7914;50.842;0.166;2022-09-09T04:43:01;6.77;;;4.60;;
15629;SDS011;7914;50.842;0.166;2022-09-09T04:45:29;8.27;;;4.73;;
15629;SDS011;7914;50.842;0.166;2022-09-09T04:47:56;7.83;;;4.77;;
15629;SDS011;7914;50.842;0.166;2022-09-09T04:50:21;6.90;;;4.40;;
15629;SDS011;7914;50.842;0.166;2022-09-09T04:52:47;6.17;;;4.40;;
15629;SDS011;7914;50.842;0.166;2022-09-09T04:55:13;6.57;;;4.67;;
15629;SDS011;7914;50.842;0.166;2022-09-09T04:57:39;5.70;;;4.50;;
15629;SDS011;7914;50.842;0.166;2022-09-09T05:00:05;9.03;;;4.90;;
15629;SDS011;7914;50.842;0.166;2022-09-09T05:02:32;8.67;;;4.30;;
15629;SDS011;7914;50.842;0.166;2022-09-09T05:04:58;6.67;;;4.47;;
15629;SDS011;7914;50.842;0.166;2022-09-09T05:07:38;4.73;;;4.33;;
15629;SDS011;7914;50.842;0.166;2022-09-09T05:10:03;6.10;;;4.90;;
15629;SDS011;7914;50.842;0.166;2022-09-09T05:12:30;11.03;;;4.57;;
15629;SDS011;7914;50.842;0.166;2022-09-09T05:14:56;8.03;;;4.83;;
15629;SDS011;7914;50.842;0.166;2022-09-09T05:17:23;5.57;;;4.93;;
15629;SDS011;7914;50.842;0.166;2022-09-09T05:19:49;9.37;;;4.77;;
15629;SDS011;7914;50.842;0.166;2022-09-09T05:22:20;6.40;;;4.27;;
15629;SDS011;7914;50.842;0.166;2022-09-09T05:24:48;7.23;;;4.97;;
15629;SDS011;7914;50.842;0.166;2022-09-09T05:27:16;8.20;;;4.83;;
15629;SDS011;7914;50.842;0.166;2022-09-09T05:29:44;16.20;;;4.93;;
15629;SDS011;7914;50.842;0.166;2022-09-09T05:32:10;8.03;;;5.10;;
15629;SDS011;7914;50.842;0.166;2022-09-09T05:34:36;9.67;;;4.97;;
15629;SDS011;7914;50.842;0.166;2022-09-09T05:37:04;6.93;;;5.00;;
15629;SDS011;7914;50.842;0.166;2022-09-09T05:39:31;9.30;;;5.43;;
15629;SDS011;7914;50.842;0.166;2022-09-09T05:41:57;11.00;;;5.40;;
15629;SDS011;7914;50.842;0.166;2022-09-09T05:44:23;7.13;;;5.43;;
15629;SDS011;7914;50.842;0.166;2022-09-09T05:46:52;6.60;;;5.00;;
15629;SDS011;7914;50.842;0.166;2022-09-09T05:49:19;7.87;;;6.30;;
15629;SDS011;7914;50.842;0.166;2022-09-09T05:51:46;5.53;;;5.03;;
15629;SDS011;7914;50.842;0.166;2022-09-09T05:54:14;6.97;;;5.33;;
15629;SDS011;7914;50.842;0.166;2022-09-09T05:56:40;11.77;;;5.83;;
15629;SDS011;7914;50.842;0.166;2022-09-09T05:59:06;5.40;;;4.90;;
15629;SDS011;7914;50.842;0.166;2022-09-09T06:01:33;9.43;;;5.10;;
15629;SDS011;7914;50.842;0.166;2022-09-09T06:04:00;5.87;;;5.33;;
15629;SDS011;7914;50.842;0.166;2022-09-09T06:06:29;7.50;;;5.87;;
15629;SDS011;7914;50.842;0.166;2022-09-09T06:09:02;5.83;;;5.20;;
15629;SDS011;7914;50.842;0.166;2022-09-09T06:11:31;8.00;;;5.27;;
15629;SDS011;7914;50.842;0.166;2022-09-09T06:13:57;7.03;;;5.27;;
15629;SDS011;7914;50.842;0.166;2022-09-09T06:16:24;6.43;;;5.03;;
15629;SDS011;7914;50.842;0.166;2022-09-09T06:18:51;7.87;;;5.27;;
15629;SDS011;7914;50.842;0.166;2022-09-09T06:21:20;8.27;;;5.03;;
15629;SDS011;7914;50.842;0.166;2022-09-09T06:23:47;8.70;;;5.57;;
15629;SDS011;7914;50.842;0.166;2022-09-09T06:26:15;7.70;;;5.77;;
15629;SDS011;7914;50.842;0.166;2022-09-09T06:28:45;8.80;;;7.03;;
15629;SDS011;7914;50.842;0.166;2022-09-09T06:31:13;6.70;;;5.47;;
15629;SDS011;7914;50.842;0.166;2022-09-09T06:33:47;9.60;;;5.40;;
15629;SDS011;7914;50.842;0.166;2022-09-09T06:36:18;9.40;;;5.17;;
15629;SDS011;7914;50.842;0.166;2022-09-09T06:38:45;9.13;;;5.60;;
15629;SDS011;7914;50.842;0.166;2022-09-09T06:41:12;9.23;;;4.80;;
15629;SDS011;7914;50.842;0.166;2022-09-09T06:43:39;12.07;;;4.40;;
15629;SDS011;7914;50.842;0.166;2022-09-09T06:46:09;7.23;;;4.90;;
15629;SDS011;7914;50.842;0.166;2022-09-09T06:48:38;6.20;;;4.67;;
15629;SDS011;7914;50.842;0.166;2022-09-09T06:53:46;7.30;;;4.90;;
15629;SDS011;7914;50.842;0.166;2022-09-09T06:58:54;8.20;;;4.63;;
15629;SDS011;7914;50.842;0.166;2022-09-09T07:01:22;11.47;;;5.10;;
15629;SDS011;7914;50.842;0.166;2022-09-09T07:03:53;5.93;;;4.60;;
15629;SDS011;7914;50.842;0.166;2022-09-09T07:06:21;9.03;;;5.33;;
15629;SDS011;7914;50.842;0.166;2022-09-09T07:08:51;6.57;;;5.00;;
15629;SDS011;7914;50.842;0.166;2022-09-09T07:11:19;6.13;;;4.43;;
15629;SDS011;7914;50.842;0.166;2022-09-09T07:13:46;5.63;;;4.70;;
15629;SDS011;7914;50.842;0.166;2022-09-09T07:16:13;7.17;;;5.10;;
15629;SDS011;7914;50.842;0.166;2022-09-09T07:18:41;8.00;;;4.63;;
15629;SDS011;7914;50.842;0.166;2022-09-09T07:21:07;6.07;;;4.57;;
15629;SDS011;7914;50.842;0.166;2022-09-09T07:23:34;7.17;;;5.33;;
15629;SDS011;7914;50.842;0.166;2022-09-09T07:26:07;7.90;;;4.73;;
15629;SDS011;7914;50.842;0.166;2022-09-09T07:28:34;9.57;;;4.67;;
15629;SDS011;7914;50.842;0.166;2022-09-09T07:31:00;6.43;;;4.70;;
15629;SDS011;7914;50.842;0.166;2022-09-09T07:33:30;7.87;;;4.53;;
15629;SDS011;7914;50.842;0.166;2022-09-09T07:36:18;5.43;;;3.90;;
15629;SDS011;7914;50.842;0.166;2022-09-09T07:38:49;6.27;;;4.30;;
15629;SDS011;7914;50.842;0.166;2022-09-09T07:41:21;6.33;;;4.13;;
15629;SDS011;7914;50.842;0.166;2022-09-09T07:43:48;5.27;;;3.87;;
15629;SDS011;7914;50.842;0.166;2022-09-09T07:46:15;5.13;;;3.90;;
15629;SDS011;7914;50.842;0.166;2022-09-09T07:48:46;4.20;;;3.90;;
15629;SDS011;7914;50.842;0.166;2022-09-09T07:51:18;7.70;;;4.10;;
15629;SDS011;7914;50.842;0.166;2022-09-09T07:53:46;6.53;;;4.10;;
15629;SDS011;7914;50.842;0.166;2022-09-09T07:56:14;4.37;;;4.00;;
15629;SDS011;7914;50.842;0.166;2022-09-09T07:58:45;4.40;;;3.97;;
15629;SDS011;7914;50.842;0.166;2022-09-09T08:01:13;5.80;;;3.70;;
15629;SDS011;7914;50.842;0.166;2022-09-09T08:03:55;5.20;;;4.10;;
15629;SDS011;7914;50.842;0.166;2022-09-09T08:06:38;5.13;;;4.20;;
15629;SDS011;7914;50.842;0.166;2022-09-09T08:09:06;7.97;;;4.03;;
15629;SDS011;7914;50.842;0.166;2022-09-09T08:11:33;4.53;;;3.40;;
15629;SDS011;7914;50.842;0.166;2022-09-09T08:14:01;5.27;;;3.70;;
15629;SDS011;7914;50.842;0.166;2022-09-09T08:16:29;5.70;;;3.50;;
15629;SDS011;7914;50.842;0.166;2022-09-09T08:18:56;5.07;;;4.00;;
15629;SDS011;7914;50.842;0.166;2022-09-09T08:21:23;6.83;;;3.70;;
15629;SDS011;7914;50.842;0.166;2022-09-09T08:23:53;8.50;;;4.03;;
15629;SDS011;7914;50.842;0.166;2022-09-09T08:26:24;5.63;;;4.07;;
15629;SDS011;7914;50.842;0.166;2022-09-09T08:28:55;6.40;;;4.30;;
15629;SDS011;7914;50.842;0.166;2022-09-09T08:31:24;4.67;;;3.63;;
15629;SDS011;7914;50.842;0.166;2022-09-09T08:33:55;5.20;;;3.70;;
15629;SDS011;7914;50.842;0.166;2022-09-09T08:36:22;5.70;;;3.53;;
15629;SDS011;7914;50.842;0.166;2022-09-09T08:38:51;5.17;;;3.90;;
15629;SDS011;7914;50.842;0.166;2022-09-09T08:49:38;4.77;;;3.00;;
15629;SDS011;7914;50.842;0.166;2022-09-09T08:52:16;6.47;;;3.47;;
15629;SDS011;7914;50.842;0.166;2022-09-09T08:57:52;7.40;;;3.70;;
15629;SDS011;7914;50.842;0.166;2022-09-09T09:00:20;6.93;;;3.20;;
15629;SDS011;7914;50.842;0.166;2022-09-09T09:11:54;4.30;;;3.30;;
15629;SDS011;7914;50.842;0.166;2022-09-09T09:14:28;6.30;;;3.60;;
15629;SDS011;7914;50.842;0.166;2022-09-09T09:19:26;8.20;;;3.40;;
15629;SDS011;7914;50.842;0.166;2022-09-09T09:22:02;7.43;;;4.00;;
15629;SDS011;7914;50.842;0.166;2022-09-09T09:24:45;6.63;;;4.50;;
15629;SDS011;7914;50.842;0.166;2022-09-09T09:30:15;5.47;;;3.80;;
15629;SDS011;7914;50.842;0.166;2022-09-09T09:33:01;6.17;;;3.53;;
15629;SDS011;7914;50.842;0.166;2022-09-09T09:35:31;7.13;;;3.77;;
15629;SDS011;7914;50.842;0.166;2022-09-09T09:37:57;7.13;;;4.13;;
15629;SDS011;7914;50.842;0.166;2022-09-09T09:40:25;5.87;;;3.87;;
15629;SDS011;7914;50.842;0.166;2022-09-09T09:42:52;4.13;;;3.47;;
15629;SDS011;7914;50.842;0.166;2022-09-09T09:48:00;5.03;;;3.30;;
15629;SDS011;7914;50.842;0.166;2022-09-09T09:50:28;6.17;;;3.13;;
15629;SDS011;7914;50.842;0.166;2022-09-09T09:52:55;7.63;;;3.50;;
15629;SDS011;7914;50.842;0.166;2022-09-09T09:55:22;5.73;;;3.10;;
15629;SDS011;7914;50.842;0.166;2022-09-09T09:57:49;5.73;;;3.20;;
15629;SDS011;7914;50.842;0.166;2022-09-09T10:00:22;3.43;;;2.70;;
15629;SDS011;7914;50.842;0.166;2022-09-09T10:02:48;5.50;;;3.27;;
15629;SDS011;7914;50.842;0.166;2022-09-09T10:05:21;4.43;;;3.10;;
15629;SDS011;7914;50.842;0.166;2022-09-09T10:16:40;3.90;;;2.90;;
15629;SDS011;7914;50.842;0.166;2022-09-09T10:25:10;4.10;;;2.40;;
15629;SDS011;7914;50.842;0.166;2022-09-09T10:30:42;3.13;;;2.37;;
15629;SDS011;7914;50.842;0.166;2022-09-09T10:38:46;5.23;;;2.50;;
15629;SDS011;7914;50.842;0.166;2022-09-09T10:41:19;4.63;;;2.40;;
15629;SDS011;7914;50.842;0.166;2022-09-09T10:54:56;6.35;;;2.58;;
15629;SDS011;7914;50.842;0.166;2022-09-09T10:57:51;5.40;;;2.42;;
15629;SDS011;7914;50.842;0.166;2022-09-09T11:00:27;3.70;;;2.30;;
15629;SDS011;7914;50.842;0.166;2022-09-09T11:03:03;7.63;;;2.20;;
15629;SDS011;7914;50.842;0.166;2022-09-09T11:05:31;2.75;;;2.20;;
15629;SDS011;7914;50.842;0.166;2022-09-09T11:08:20;2.13;;;1.83;;
15629;SDS011;7914;50.842;0.166;2022-09-09T11:19:12;2.67;;;1.60;;
15629;SDS011;7914;50.842;0.166;2022-09-09T11:21:59;2.20;;;1.45;;
15629;SDS011;7914;50.842;0.166;2022-09-09T11:24:45;3.72;;;1.70;;
15629;SDS011;7914;50.842;0.166;2022-09-09T11:30:13;2.65;;;1.75;;
15629;SDS011;7914;50.842;0.166;2022-09-09T11:38:35;3.63;;;1.73;;
15629;SDS011;7914;50.842;0.166;2022-09-09T11:41:12;2.75;;;1.55;;
15629;SDS011;7914;50.842;0.166;2022-09-09T11:43:43;3.15;;;1.52;;
15629;SDS011;7914;50.842;0.166;2022-09-09T11:46:12;1.90;;;1.30;;
15629;SDS011;7914;50.842;0.166;2022-09-09T11:48:41;3.75;;;1.67;;
15629;SDS011;7914;50.842;0.166;2022-09-09T11:51:25;5.38;;;2.90;;
15629;SDS011;7914;50.842;0.166;2022-09-09T11:53:56;4.55;;;2.45;;
15629;SDS011;7914;50.842;0.166;2022-09-09T12:01:42;4.75;;;2.47;;
15629;SDS011;7914;50.842;0.166;2022-09-09T12:04:46;3.57;;;1.90;;
15629;SDS011;7914;50.842;0.166;2022-09-09T12:12:32;5.45;;;2.00;;
15629;SDS011;7914;50.842;0.166;2022-09-09T12:15:00;5.57;;;1.80;;
15629;SDS011;7914;50.842;0.166;2022-09-09T12:17:37;4.72;;;2.03;;
15629;SDS011;7914;50.842;0.166;2022-09-09T12:23:30;6.53;;;2.10;;
15629;SDS011;7914;50.842;0.166;2022-09-09T12:26:03;5.95;;;2.13;;
15629;SDS011;7914;50.842;0.166;2022-09-09T12:28:46;4.95;;;1.92;;
15629;SDS011;7914;50.842;0.166;2022-09-09T12:34:15;5.45;;;1.85;;
15629;SDS011;7914;50.842;0.166;2022-09-09T12:36:57;4.05;;;1.95;;
15629;SDS011;7914;50.842;0.166;2022-09-09T12:39:33;3.45;;;2.08;;
15629;SDS011;7914;50.842;0.166;2022-09-09T12:42:02;3.60;;;1.80;;
15629;SDS011;7914;50.842;0.166;2022-09-09T12:44:29;4.28;;;1.70;;
15629;SDS011;7914;50.842;0.166;2022-09-09T12:46:55;7.30;;;1.80;;
15629;SDS011;7914;50.842;0.166;2022-09-09T12:52:03;4.28;;;1.77;;
15629;SDS011;7914;50.842;0.166;2022-09-09T12:54:32;3.75;;;1.70;;
15629;SDS011;7914;50.842;0.166;2022-09-09T12:57:00;3.53;;;1.60;;
15629;SDS011;7914;50.842;0.166;2022-09-09T12:59:26;4.85;;;1.83;;
15629;SDS011;7914;50.842;0.166;2022-09-09T13:02:21;6.10;;;1.98;;
15629;SDS011;7914;50.842;0.166;2022-09-09T13:04:48;4.88;;;1.83;;
15629;SDS011;7914;50.842;0.166;2022-09-09T13:07:15;5.95;;;2.28;;
15629;SDS011;7914;50.842;0.166;2022-09-09T13:09:44;3.10;;;1.80;;
15629;SDS011;7914;50.842;0.166;2022-09-09T13:12:13;5.00;;;1.80;;
15629;SDS011;7914;50.842;0.166;2022-09-09T13:14:43;3.08;;;1.80;;
15629;SDS011;7914;50.842;0.166;2022-09-09T13:17:25;6.18;;;2.38;;
15629;SDS011;7914;50.842;0.166;2022-09-09T13:19:54;5.03;;;2.20;;
15629;SDS011;7914;50.842;0.166;2022-09-09T13:25:05;4.57;;;1.93;;
15629;SDS011;7914;50.842;0.166;2022-09-09T13:27:33;4.97;;;2.40;;
15629;SDS011;7914;50.842;0.166;2022-09-09T13:30:19;5.27;;;1.87;;
15629;SDS011;7914;50.842;0.166;2022-09-09T13:32:47;5.80;;;2.30;;
15629;SDS011;7914;50.842;0.166;2022-09-09T13:35:23;5.43;;;1.87;;
15629;SDS011;7914;50.842;0.166;2022-09-09T13:37:49;6.10;;;2.03;;
15629;SDS011;7914;50.842;0.166;2022-09-09T13:40:19;5.80;;;2.00;;
15629;SDS011;7914;50.842;0.166;2022-09-09T13:42:56;4.60;;;2.00;;
15629;SDS011;7914;50.842;0.166;2022-09-09T13:45:23;7.38;;;2.10;;
15629;SDS011;7914;50.842;0.166;2022-09-09T13:47:53;4.82;;;1.65;;
15629;SDS011;7914;50.842;0.166;2022-09-09T13:50:27;5.43;;;2.30;;
15629;SDS011;7914;50.842;0.166;2022-09-09T13:52:54;5.93;;;1.80;;
15629;SDS011;7914;50.842;0.166;2022-09-09T13:55:24;5.78;;;1.98;;
15629;SDS011;7914;50.842;0.166;2022-09-09T14:00:21;4.65;;;1.65;;
15629;SDS011;7914;50.842;0.166;2022-09-09T14:02:48;5.13;;;1.60;;
15629;SDS011;7914;50.842;0.166;2022-09-09T14:05:14;6.53;;;2.00;;
15629;SDS011;7914;50.842;0.166;2022-09-09T14:07:41;3.67;;;1.83;;
15629;SDS011;7914;50.842;0.166;2022-09-09T14:10:08;6.88;;;2.03;;
15629;SDS011;7914;50.842;0.166;2022-09-09T14:12:35;3.80;;;1.50;;
15629;SDS011;7914;50.842;0.166;2022-09-09T14:15:04;5.10;;;1.70;;
15629;SDS011;7914;50.842;0.166;2022-09-09T14:17:33;4.57;;;1.70;;
15629;SDS011;7914;50.842;0.166;2022-09-09T14:20:01;4.43;;;1.67;;
15629;SDS011;7914;50.842;0.166;2022-09-09T14:22:31;3.00;;;1.77;;
15629;SDS011;7914;50.842;0.166;2022-09-09T14:24:57;4.47;;;1.60;;
15629;SDS011;7914;50.842;0.166;2022-09-09T14:27:23;3.93;;;1.77;;
15629;SDS011;7914;50.842;0.166;2022-09-09T14:29:48;4.47;;;1.80;;
15629;SDS011;7914;50.842;0.166;2022-09-09T14:32:14;4.40;;;2.20;;
15629;SDS011;7914;50.842;0.166;2022-09-09T14:34:40;5.70;;;2.00;;
15629;SDS011;7914;50.842;0.166;2022-09-09T14:37:05;2.77;;;1.97;;
15629;SDS011;7914;50.842;0.166;2022-09-09T14:39:31;5.27;;;2.30;;
15629;SDS011;7914;50.842;0.166;2022-09-09T14:41:57;2.73;;;1.80;;
15629;SDS011;7914;50.842;0.166;2022-09-09T14:44:23;4.23;;;2.10;;
15629;SDS011;7914;50.842;0.166;2022-09-09T14:46:49;6.10;;;2.20;;
15629;SDS011;7914;50.842;0.166;2022-09-09T14:49:15;4.83;;;2.40;;
15629;SDS011;7914;50.842;0.166;2022-09-09T14:51:41;4.00;;;2.13;;
15629;SDS011;7914;50.842;0.166;2022-09-09T14:54:07;4.17;;;2.13;;
15629;SDS011;7914;50.842;0.166;2022-09-09T14:56:33;2.53;;;2.20;;
15629;SDS011;7914;50.842;0.166;2022-09-09T14:58:59;2.60;;;1.83;;
15629;SDS011;7914;50.842;0.166;2022-09-09T15:01:26;2.53;;;1.60;;
15629;SDS011;7914;50.842;0.166;2022-09-09T15:03:53;1.70;;;1.50;;
15629;SDS011;7914;50.842;0.166;2022-09-09T15:06:24;2.27;;;1.70;;
15629;SDS011;7914;50.842;0.166;2022-09-09T15:08:51;1.70;;;1.60;;
15629;SDS011;7914;50.842;0.166;2022-09-09T15:11:18;2.63;;;1.57;;
15629;SDS011;7914;50.842;0.166;2022-09-09T15:13:45;1.77;;;1.60;;
15629;SDS011;7914;50.842;0.166;2022-09-09T15:16:13;1.97;;;1.50;;
15629;SDS011;7914;50.842;0.166;2022-09-09T15:18:41;3.00;;;1.83;;
15629;SDS011;7914;50.842;0.166;2022-09-09T15:21:11;2.20;;;1.50;;
15629;SDS011;7914;50.842;0.166;2022-09-09T15:23:42;3.43;;;1.60;;
15629;SDS011;7914;50.842;0.166;2022-09-09T15:26:08;3.17;;;1.80;;
15629;SDS011;7914;50.842;0.166;2022-09-09T15:28:35;1.90;;;1.70;;
15629;SDS011;7914;50.842;0.166;2022-09-09T15:33:57;2.50;;;1.73;;
15629;SDS011;7914;50.842;0.166;2022-09-09T15:38:57;4.50;;;1.60;;
15629;SDS011;7914;50.842;0.166;2022-09-09T15:41:23;2.27;;;1.80;;
15629;SDS011;7914;50.842;0.166;2022-09-09T15:43:50;3.00;;;1.80;;
15629;SDS011;7914;50.842;0.166;2022-09-09T15:48:55;1.73;;;1.57;;
15629;SDS011;7914;50.842;0.166;2022-09-09T15:51:23;1.80;;;1.70;;
15629;SDS011;7914;50.842;0.166;2022-09-09T15:53:54;1.40;;;1.30;;
15629;SDS011;7914;50.842;0.166;2022-09-09T15:56:21;3.00;;;1.50;;
15629;SDS011;7914;50.842;0.166;2022-09-09T15:58:47;2.50;;;1.60;;
15629;SDS011;7914;50.842;0.166;2022-09-09T16:01:13;4.00;;;1.97;;
15629;SDS011;7914;50.842;0.166;2022-09-09T16:03:40;2.07;;;1.50;;
15629;SDS011;7914;50.842;0.166;2022-09-09T16:06:07;2.63;;;1.40;;
15629;SDS011;7914;50.842;0.166;2022-09-09T16:08:41;4.47;;;1.87;;
15629;SDS011;7914;50.842;0.166;2022-09-09T16:11:09;4.40;;;1.80;;
15629;SDS011;7914;50.842;0.166;2022-09-09T16:13:40;2.20;;;1.70;;
15629;SDS011;7914;50.842;0.166;2022-09-09T16:16:08;3.23;;;1.80;;
15629;SDS011;7914;50.842;0.166;2022-09-09T16:18:36;2.40;;;1.60;;
15629;SDS011;7914;50.842;0.166;2022-09-09T16:21:07;4.60;;;1.80;;
15629;SDS011;7914;50.842;0.166;2022-09-09T16:23:33;4.23;;;2.00;;
15629;SDS011;7914;50.842;0.166;2022-09-09T16:26:00;4.83;;;1.73;;
15629;SDS011;7914;50.842;0.166;2022-09-09T16:28:27;3.57;;;1.97;;
15629;SDS011;7914;50.842;0.166;2022-09-09T16:30:53;2.97;;;2.03;;
15629;SDS011;7914;50.842;0.166;2022-09-09T16:33:19;5.87;;;2.53;;
15629;SDS011;7914;50.842;0.166;2022-09-09T16:35:45;4.23;;;1.90;;
15629;SDS011;7914;50.842;0.166;2022-09-09T16:38:11;3.43;;;2.00;;
15629;SDS011;7914;50.842;0.166;2022-09-09T16:40:37;3.63;;;2.17;;
15629;SDS011;7914;50.842;0.166;2022-09-09T16:43:03;6.37;;;2.20;;
15629;SDS011;7914;50.842;0.166;2022-09-09T16:45:30;3.17;;;1.90;;
15629;SDS011;7914;50.842;0.166;2022-09-09T16:47:57;4.97;;;2.07;;
15629;SDS011;7914;50.842;0.166;2022-09-09T16:50:25;5.83;;;2.03;;
15629;SDS011;7914;50.842;0.166;2022-09-09T16:52:51;4.43;;;2.43;;
15629;SDS011;7914;50.842;0.166;2022-09-09T16:55:17;2.87;;;2.00;;
15629;SDS011;7914;50.842;0.166;2022-09-09T16:57:47;3.83;;;2.00;;
15629;SDS011;7914;50.842;0.166;2022-09-09T17:00:14;4.27;;;2.17;;
15629;SDS011;7914;50.842;0.166;2022-09-09T17:02:43;4.53;;;2.20;;
15629;SDS011;7914;50.842;0.166;2022-09-09T17:05:10;3.83;;;1.93;;
15629;SDS011;7914;50.842;0.166;2022-09-09T17:07:37;3.93;;;2.07;;
15629;SDS011;7914;50.842;0.166;2022-09-09T17:10:03;3.47;;;1.90;;
15629;SDS011;7914;50.842;0.166;2022-09-09T17:12:30;4.70;;;1.90;;
15629;SDS011;7914;50.842;0.166;2022-09-09T17:14:57;2.67;;;1.53;;
15629;SDS011;7914;50.842;0.166;2022-09-09T17:17:24;3.23;;;1.80;;
15629;SDS011;7914;50.842;0.166;2022-09-09T17:19:51;3.77;;;1.70;;
15629;SDS011;7914;50.842;0.166;2022-09-09T17:22:17;5.77;;;2.00;;
15629;SDS011;7914;50.842;0.166;2022-09-09T17:24:44;3.80;;;1.80;;
15629;SDS011;7914;50.842;0.166;2022-09-09T17:27:11;3.63;;;1.90;;
15629;SDS011;7914;50.842;0.166;2022-09-09T17:29:37;2.50;;;1.43;;
15629;SDS011;7914;50.842;0.166;2022-09-09T17:32:04;2.60;;;1.80;;
15629;SDS011;7914;50.842;0.166;2022-09-09T17:34:31;2.33;;;1.70;;
15629;SDS011;7914;50.842;0.166;2022-09-09T17:36:56;4.73;;;1.70;;
15629;SDS011;7914;50.842;0.166;2022-09-09T17:39:22;2.97;;;1.67;;
15629;SDS011;7914;50.842;0.166;2022-09-09T17:41:48;3.13;;;1.70;;
15629;SDS011;7914;50.842;0.166;2022-09-09T17:44:14;3.07;;;1.90;;
15629;SDS011;7914;50.842;0.166;2022-09-09T17:46:41;3.07;;;1.90;;
15629;SDS011;7914;50.842;0.166;2022-09-09T17:49:11;5.33;;;2.00;;
15629;SDS011;7914;50.842;0.166;2022-09-09T17:51:39;3.33;;;1.93;;
15629;SDS011;7914;50.842;0.166;2022-09-09T17:54:10;3.83;;;2.37;;
15629;SDS011;7914;50.842;0.166;2022-09-09T17:56:38;2.80;;;2.10;;
15629;SDS011;7914;50.842;0.166;2022-09-09T17:59:06;4.70;;;2.03;;
15629;SDS011;7914;50.842;0.166;2022-09-09T18:01:34;10.07;;;2.53;;
15629;SDS011;7914;50.842;0.166;2022-09-09T18:04:02;6.43;;;2.83;;
15629;SDS011;7914;50.842;0.166;2022-09-09T18:06:37;7.97;;;2.50;;